Time;durP1;ratioP1;P1;durP2;ratioP2;P2;SDS_P1;SDS_P2;PMS_P1;PMS_P2;Temp;Humidity;BMP_temperature;BMP_pressure;BME280_temperature;BME280_humidity;BME280_pressure;Samples;Min_cycle;Max_cycle;Signal;HPM_P1;HPM_P2
2022/01/23 00:00:03;;;;;;;13.32;7.40;;;4.10;99.90;;;;;;4982073;28;20031;-81
2022/01/23 00:02:35;;;;;;;12.85;6.85;;;4.10;99.90;;;;;;4980557;28;20367;-81
2022/01/23 00:05:06;;;;;;;13.73;7.10;;;4.10;99.90;;;;;;4962648;29;20250;-82
2022/01/23 00:07:33;;;;;;;14.85;8.00;;;4.10;99.90;;;;;;4963258;28;20023;-80
2022/01/23 00:10:00;;;;;;;14.65;7.97;;;4.00;99.90;;;;;;4962232;28;20027;-81
2022/01/23 00:12:28;;;;;;;12.68;7.07;;;4.00;99.90;;;;;;4962766;28;20035;-81
2022/01/23 00:19:16;;;;;;;13.82;8.02;;;4.00;99.90;;;;;;4962366;28;20050;-80
2022/01/23 00:21:42;;;;;;;15.75;8.07;;;4.10;99.90;;;;;;4952469;28;20249;-79
2022/01/23 00:32:06;;;;;;;15.63;8.70;;;4.20;99.90;;;;;;4963684;28;20043;-80
2022/01/23 00:34:32;;;;;;;12.35;7.72;;;4.10;99.90;;;;;;4961918;29;20038;-81
2022/01/23 00:39:51;;;;;;;15.15;7.68;;;4.00;99.90;;;;;;4962288;29;20039;-79
2022/01/23 00:42:16;;;;;;;13.43;7.70;;;4.00;99.90;;;;;;4962523;29;20039;-79
2022/01/23 00:44:44;;;;;;;14.23;8.07;;;4.10;99.90;;;;;;4961435;29;20057;-80
2022/01/23 00:47:12;;;;;;;16.08;8.02;;;4.10;99.90;;;;;;4946301;29;20043;-83
2022/01/23 00:49:38;;;;;;;14.30;8.10;;;4.10;99.90;;;;;;4961247;29;20249;-82
2022/01/23 00:52:04;;;;;;;17.55;8.65;;;4.10;99.90;;;;;;4962082;29;20026;-80
2022/01/23 00:54:30;;;;;;;14.80;7.78;;;4.10;99.90;;;;;;4963157;28;20030;-80
2022/01/23 00:56:56;;;;;;;13.75;7.45;;;4.10;99.90;;;;;;4962415;28;20031;-81
2022/01/23 00:59:21;;;;;;;12.05;7.50;;;4.10;99.90;;;;;;4981222;28;20031;-79
2022/01/23 01:01:47;;;;;;;12.88;7.30;;;4.10;99.90;;;;;;4980731;28;20043;-80
2022/01/23 01:04:13;;;;;;;14.30;7.68;;;4.10;99.90;;;;;;4980927;28;20030;-80
2022/01/23 01:06:39;;;;;;;15.23;6.97;;;4.10;99.90;;;;;;4965006;28;20031;-80
2022/01/23 01:09:08;;;;;;;14.82;7.85;;;4.10;99.90;;;;;;4981377;28;20054;-80
2022/01/23 01:12:17;;;;;;;14.20;8.00;;;4.10;99.90;;;;;;4981048;28;20030;-81
2022/01/23 01:30:47;;;;;;;14.05;8.48;;;4.10;99.90;;;;;;4984278;28;20027;-80
2022/01/23 01:33:35;;;;;;;16.48;8.13;;;4.10;99.90;;;;;;4984776;28;20034;-80
2022/01/23 01:36:18;;;;;;;14.63;8.10;;;4.10;99.90;;;;;;4985208;28;20061;-80
2022/01/23 01:38:47;;;;;;;13.40;8.20;;;4.20;99.90;;;;;;4971004;28;20364;-81
2022/01/23 01:41:15;;;;;;;14.98;8.65;;;4.20;99.90;;;;;;4984822;28;20127;-81
2022/01/23 01:43:41;;;;;;;15.50;8.57;;;4.20;99.90;;;;;;4967873;28;20062;-81
2022/01/23 01:46:11;;;;;;;14.93;8.45;;;4.30;99.90;;;;;;4968266;28;20117;-82
2022/01/23 01:48:43;;;;;;;15.00;8.18;;;4.30;99.90;;;;;;4983737;28;20071;-82
2022/01/23 01:51:20;;;;;;;16.90;9.10;;;4.30;99.90;;;;;;4983955;28;20039;-81
2022/01/23 01:54:16;;;;;;;16.40;9.55;;;4.30;99.90;;;;;;4968921;28;20039;-81
2022/01/23 01:57:05;;;;;;;18.50;9.25;;;4.30;99.90;;;;;;4983393;28;20023;-81
2022/01/23 02:23:11;;;;;;;20.50;10.93;;;4.30;99.90;;;;;;4963493;29;20039;-80
2022/01/23 02:55:48;;;;;;;17.50;9.93;;;4.30;99.90;;;;;;4872092;29;20025;-79
2022/01/23 02:58:20;;;;;;;19.20;10.70;;;4.20;99.90;;;;;;4887733;29;20096;-80
2022/01/23 03:01:05;;;;;;;17.42;10.70;;;4.30;99.90;;;;;;4886615;29;20178;-79
2022/01/23 03:03:48;;;;;;;18.70;10.77;;;4.30;99.90;;;;;;4897021;29;20063;-79
2022/01/23 03:12:03;;;;;;;20.85;10.93;;;4.20;99.90;;;;;;4889487;29;20303;-80
2022/01/23 03:14:43;;;;;;;;;;;4.20;99.90;;;;;;4905758;29;20149;-80
2022/01/23 03:30:53;;;;;;;20.90;11.25;;;4.20;99.90;;;;;;4949155;29;20098;-80
2022/01/23 03:33:19;;;;;;;21.40;10.77;;;4.30;99.90;;;;;;4964420;29;20230;-80
2022/01/23 03:35:54;;;;;;;17.15;9.77;;;4.20;99.90;;;;;;4946841;29;20027;-79
2022/01/23 03:38:20;;;;;;;20.90;11.32;;;4.30;99.90;;;;;;4947008;29;20031;-79
2022/01/23 03:40:46;;;;;;;21.88;10.68;;;4.30;99.90;;;;;;4963623;29;20055;-79
2022/01/23 03:43:14;;;;;;;21.10;10.93;;;4.30;99.90;;;;;;4962866;29;20221;-79
2022/01/23 03:51:18;;;;;;;23.38;12.43;;;4.20;99.90;;;;;;4955235;28;20059;-79
2022/01/23 03:53:47;;;;;;;22.77;12.25;;;4.20;99.90;;;;;;4966280;28;20045;-80
2022/01/23 03:56:15;;;;;;;21.58;12.02;;;4.10;99.90;;;;;;4982280;28;20023;-80
2022/01/23 03:59:41;;;;;;;23.33;12.47;;;4.00;99.90;;;;;;4965868;28;20038;-79
2022/01/23 04:03:19;;;;;;;22.65;12.20;;;4.00;99.90;;;;;;4981992;28;20093;-79
2022/01/23 04:05:52;;;;;;;19.23;10.90;;;4.00;99.90;;;;;;4981195;28;20083;-79
2022/01/23 04:08:20;;;;;;;21.90;11.77;;;4.00;99.90;;;;;;4981753;28;20047;-79
2022/01/23 04:10:53;;;;;;;21.02;11.98;;;4.00;99.90;;;;;;4981465;28;20151;-80
2022/01/23 04:13:35;;;;;;;20.50;11.93;;;4.00;99.90;;;;;;4983118;28;20150;-79
2022/01/23 04:16:17;;;;;;;22.20;11.57;;;4.00;99.90;;;;;;4966055;28;20090;-81
2022/01/23 04:46:09;;;;;;;24.85;13.05;;;4.00;99.90;;;;;;4981357;28;20415;-80
2022/01/23 04:59:46;;;;;;;24.35;12.70;;;3.90;99.90;;;;;;4945274;29;20042;-80
2022/01/23 05:04:58;;;;;;;22.80;13.13;;;3.90;99.90;;;;;;4936517;29;20243;-80
2022/01/23 05:07:47;;;;;;;26.02;13.60;;;4.00;99.90;;;;;;4944563;29;20032;-83
2022/01/23 05:10:48;;;;;;;27.77;13.52;;;4.00;99.90;;;;;;4940537;29;20306;-80
2022/01/23 05:13:34;;;;;;;26.10;13.52;;;3.90;99.90;;;;;;4948679;29;20050;-79
2022/01/23 05:16:00;;;;;;;21.13;11.77;;;4.00;99.90;;;;;;4932542;29;20031;-80
2022/01/23 05:18:26;;;;;;;24.60;12.98;;;4.00;99.90;;;;;;4930806;29;20136;-81
2022/01/23 05:21:03;;;;;;;22.65;12.38;;;4.00;99.90;;;;;;4946286;29;20071;-82
2022/01/23 05:23:29;;;;;;;24.00;12.70;;;4.00;99.90;;;;;;4946336;29;20043;-81
2022/01/23 05:25:56;;;;;;;25.45;13.90;;;4.00;99.90;;;;;;4930282;29;20031;-80
2022/01/23 05:28:22;;;;;;;22.92;12.80;;;4.10;99.90;;;;;;4931993;29;20042;-81
2022/01/23 05:30:48;;;;;;;23.15;12.80;;;4.10;99.90;;;;;;4946332;29;20086;-82
2022/01/23 05:33:13;;;;;;;24.73;12.75;;;4.00;99.90;;;;;;4946178;29;20119;-81
2022/01/23 05:35:43;;;;;;;23.98;12.82;;;4.00;99.90;;;;;;4945781;29;20032;-81
2022/01/23 05:38:10;;;;;;;23.88;12.38;;;4.00;99.90;;;;;;4930459;29;20062;-80
2022/01/23 05:40:37;;;;;;;25.38;13.27;;;4.00;99.90;;;;;;4946220;29;20031;-81
2022/01/23 05:43:20;;;;;;;25.60;13.05;;;4.00;99.90;;;;;;4930165;29;20317;-80
2022/01/23 05:45:46;;;;;;;22.30;12.25;;;4.00;99.90;;;;;;4945482;29;20352;-81
2022/01/23 05:48:30;;;;;;;25.17;13.20;;;4.00;99.90;;;;;;4945984;28;20121;-82
2022/01/23 05:59:31;;;;;;;23.98;12.73;;;4.10;99.90;;;;;;4945966;28;20079;-81
2022/01/23 06:01:57;;;;;;;22.52;12.93;;;4.10;99.90;;;;;;4939966;29;20097;-81
2022/01/23 06:04:32;;;;;;;23.85;13.07;;;4.10;99.90;;;;;;4927706;29;20027;-80
2022/01/23 06:07:12;;;;;;;23.15;12.48;;;4.10;99.90;;;;;;4929526;29;20047;-82
2022/01/23 06:09:59;;;;;;;24.88;12.57;;;4.20;99.90;;;;;;4916785;29;20028;-80
2022/01/23 06:12:26;;;;;;;27.23;13.38;;;4.10;99.90;;;;;;4930485;29;20034;-80
2022/01/23 06:14:55;;;;;;;24.65;13.02;;;4.10;99.90;;;;;;4929023;29;20043;-79
2022/01/23 06:17:21;;;;;;;24.00;13.95;;;4.10;99.90;;;;;;4928756;29;20382;-79
2022/01/23 06:20:10;;;;;;;25.58;14.07;;;4.10;99.90;;;;;;4963608;29;20083;-80
2022/01/23 06:22:54;;;;;;;28.25;14.52;;;4.10;99.90;;;;;;4951540;29;20065;-79
2022/01/23 06:25:56;;;;;;;26.52;14.20;;;4.10;99.90;;;;;;4895085;29;20228;-81
2022/01/23 06:29:00;;;;;;;27.80;13.70;;;4.00;99.90;;;;;;4928139;29;20039;-81
2022/01/23 06:31:26;;;;;;;27.40;14.80;;;4.00;99.90;;;;;;4948278;29;20059;-80
2022/01/23 06:34:02;;;;;;;24.67;13.82;;;3.90;99.90;;;;;;4932657;29;20050;-80
2022/01/23 06:36:29;;;;;;;26.08;14.07;;;4.00;99.90;;;;;;4920229;29;20313;-79
2022/01/23 06:38:55;;;;;;;26.60;14.57;;;4.10;99.90;;;;;;4928462;29;20033;-80
2022/01/23 06:41:21;;;;;;;28.50;14.95;;;4.10;99.90;;;;;;4929182;29;20028;-82
2022/01/23 06:44:17;;;;;;;26.33;13.73;;;4.00;99.90;;;;;;4915362;29;20099;-80
2022/01/23 06:46:42;;;;;;;;;;;4.00;99.90;;;;;;4929472;29;20065;-80
2022/01/23 06:49:11;;;;;;;26.33;13.48;;;4.00;99.90;;;;;;4947605;28;19914;-80
2022/01/23 06:51:39;;;;;;;31.38;16.15;;;4.00;99.90;;;;;;4948684;29;20265;-81
2022/01/23 06:54:07;;;;;;;27.10;15.13;;;3.90;99.90;;;;;;4947674;29;20110;-79
2022/01/23 06:56:35;;;;;;;27.90;14.68;;;3.90;99.90;;;;;;4963974;29;20214;-79
2022/01/23 06:59:04;;;;;;;26.48;14.65;;;3.80;99.90;;;;;;4963636;29;20027;-81
2022/01/23 07:01:29;;;;;;;29.75;14.93;;;3.80;99.90;;;;;;4964762;28;20397;-79
2022/01/23 07:04:21;;;;;;;26.60;15.52;;;3.80;99.90;;;;;;4966600;28;20070;-80
2022/01/23 07:07:06;;;;;;;27.38;15.23;;;3.90;99.90;;;;;;4963727;29;20078;-78
2022/01/23 07:09:51;;;;;;;29.23;15.13;;;3.90;99.90;;;;;;4976762;28;20033;-79
2022/01/23 07:12:44;;;;;;;28.13;14.80;;;3.90;99.90;;;;;;4964121;29;20039;-81
2022/01/23 07:15:35;;;;;;;26.92;14.80;;;3.90;99.90;;;;;;4950366;28;20035;-82
2022/01/23 07:18:21;;;;;;;32.75;15.75;;;3.90;99.90;;;;;;4964507;29;20102;-82
2022/01/23 07:21:07;;;;;;;26.52;14.90;;;4.00;99.90;;;;;;4963484;29;20039;-82
2022/01/23 07:23:36;;;;;;;27.98;13.95;;;4.00;99.90;;;;;;4963233;29;20229;-83
2022/01/23 07:26:04;;;;;;;26.98;14.90;;;4.10;99.90;;;;;;4963865;29;20082;-82
2022/01/23 07:28:39;;;;;;;24.75;14.07;;;4.10;99.90;;;;;;4967107;28;20042;-82
2022/01/23 07:31:08;;;;;;;27.55;14.20;;;4.20;99.90;;;;;;4973684;28;20042;-81
2022/01/23 07:33:36;;;;;;;26.93;14.37;;;4.10;99.90;;;;;;4968536;28;20074;-80
2022/01/23 07:36:03;;;;;;;27.73;14.82;;;4.10;99.90;;;;;;4946819;28;20027;-83
2022/01/23 07:38:30;;;;;;;26.43;14.67;;;4.10;99.90;;;;;;4969838;28;20030;-81
2022/01/23 07:41:00;;;;;;;27.05;15.30;;;4.10;99.90;;;;;;4963060;29;20043;-81
2022/01/23 07:43:42;;;;;;;27.95;14.98;;;4.10;99.90;;;;;;4967941;28;20122;-82
2022/01/23 07:47:23;;;;;;;;;;;;;;;;;;;;;
2022/01/23 07:54:10;;;;;;;30.17;16.40;;;4.20;99.90;;;;;;4962174;29;20031;-83
2022/01/23 07:56:50;;;;;;;32.70;16.88;;;4.20;99.90;;;;;;4994456;28;20031;-82
2022/01/23 07:59:43;;;;;;;32.75;17.25;;;4.30;99.90;;;;;;4952856;29;20023;-81
2022/01/23 08:02:39;;;;;;;31.77;17.42;;;4.20;99.90;;;;;;4956053;28;20202;-81
2022/01/23 08:05:48;;;;;;;33.45;16.88;;;4.20;99.90;;;;;;4963171;29;20175;-80
2022/01/23 08:08:55;;;;;;;33.17;15.98;;;4.20;99.90;;;;;;4957334;29;20027;-80
2022/01/23 08:11:25;;;;;;;31.52;17.17;;;4.20;99.90;;;;;;4963859;28;20023;-82
2022/01/23 08:13:54;;;;;;;31.65;16.48;;;4.20;99.90;;;;;;4962033;29;20106;-78
2022/01/23 08:16:23;;;;;;;29.70;15.80;;;4.30;99.90;;;;;;4948586;28;20043;-79
2022/01/23 08:19:22;;;;;;;28.38;15.85;;;4.40;99.90;;;;;;4981633;28;20087;-81
2022/01/23 08:22:03;;;;;;;;;;;4.40;99.90;;;;;;4934954;28;20035;-82
2022/01/23 08:24:41;;;;;;;29.30;15.73;;;4.60;99.90;;;;;;4986951;28;20078;-79
2022/01/23 08:27:07;;;;;;;28.40;15.25;;;4.60;99.90;;;;;;4980388;28;20030;-79
2022/01/23 08:29:32;;;;;;;29.55;16.45;;;4.70;99.90;;;;;;4980642;28;20121;-80
2022/01/23 08:31:58;;;;;;;29.92;16.92;;;4.70;99.90;;;;;;4983540;28;20047;-81
2022/01/23 08:34:33;;;;;;;29.83;15.45;;;4.70;99.90;;;;;;4985502;28;20038;-81
2022/01/23 08:37:34;;;;;;;28.45;15.63;;;4.80;99.90;;;;;;4925765;29;20032;-81
2022/01/23 08:39:59;;;;;;;;;;;4.90;99.90;;;;;;4911643;29;20107;-80
2022/01/23 08:42:25;;;;;;;25.42;14.20;;;4.90;99.90;;;;;;4911215;29;19914;-79
2022/01/23 08:44:52;;;;;;;28.40;15.73;;;5.00;99.90;;;;;;4896146;29;20124;-80
2022/01/23 08:47:18;;;;;;;26.58;14.52;;;5.10;99.90;;;;;;4892289;29;20111;-80
2022/01/23 08:49:49;;;;;;;28.50;14.50;;;5.20;99.90;;;;;;4907026;29;20351;-80
2022/01/23 08:52:37;;;;;;;26.75;14.98;;;5.20;99.90;;;;;;4907187;29;20185;-80
2022/01/23 08:55:03;;;;;;;25.47;13.77;;;5.40;99.90;;;;;;4908628;29;20091;-79
2022/01/23 08:58:10;;;;;;;23.45;13.32;;;5.60;99.90;;;;;;4908469;29;20048;-81
2022/01/23 09:00:41;;;;;;;24.08;13.23;;;5.60;99.90;;;;;;4881763;29;20311;-80
2022/01/23 09:03:19;;;;;;;22.80;13.73;;;5.70;99.90;;;;;;4913257;29;20044;-80
2022/01/23 09:05:47;;;;;;;26.07;13.97;;;5.80;99.90;;;;;;4926546;29;20237;-80
2022/01/23 09:08:13;;;;;;;;;;;5.90;99.90;;;;;;4911055;29;20020;-79
2022/01/23 09:10:52;;;;;;;24.10;13.18;;;6.10;99.90;;;;;;4911163;29;20212;-81
2022/01/23 09:13:54;;;;;;;22.65;12.48;;;6.10;99.90;;;;;;4950956;29;20090;-81
2022/01/23 09:16:20;;;;;;;26.77;14.60;;;6.30;99.90;;;;;;4978279;28;20049;-79
2022/01/23 09:18:47;;;;;;;24.25;12.60;;;6.30;99.90;;;;;;4987382;28;20106;-81
2022/01/23 09:21:12;;;;;;;23.27;13.65;;;6.40;99.90;;;;;;4985528;28;20033;-79
2022/01/23 09:23:52;;;;;;;24.15;13.20;;;6.60;99.90;;;;;;4985811;28;20050;-80
2022/01/23 09:26:21;;;;;;;22.77;13.23;;;6.70;99.90;;;;;;4969511;28;20026;-80
2022/01/23 09:28:53;;;;;;;24.35;14.20;;;6.60;99.90;;;;;;4981869;28;20357;-80
2022/01/23 09:39:40;;;;;;;24.95;14.43;;;7.20;99.90;;;;;;4945264;29;20360;-80
2022/01/23 09:42:34;;;;;;;25.02;14.20;;;7.20;99.90;;;;;;4931950;29;20037;-82
2022/01/23 09:45:24;;;;;;;24.48;13.85;;;7.20;99.90;;;;;;4982457;28;20048;-80
2022/01/23 09:47:55;;;;;;;22.23;13.13;;;7.40;99.90;;;;;;5002617;28;20114;-81
2022/01/23 09:50:21;;;;;;;21.95;13.43;;;7.50;99.90;;;;;;4986370;28;20177;-81
2022/01/23 09:52:50;;;;;;;23.27;14.13;;;7.60;99.90;;;;;;4984402;28;20043;-81
2022/01/23 09:55:19;;;;;;;;;;;7.70;99.90;;;;;;4967509;28;20277;-81
2022/01/23 09:58:02;;;;;;;24.35;13.48;;;7.80;99.90;;;;;;4967789;28;19967;-81
2022/01/23 10:01:00;;;;;;;21.88;12.85;;;7.80;99.90;;;;;;4983176;28;20137;-79
2022/01/23 10:03:51;;;;;;;23.23;14.07;;;8.00;99.90;;;;;;4974363;28;20140;-81
2022/01/23 10:06:23;;;;;;;25.73;15.35;;;8.00;99.90;;;;;;4947334;29;20043;-81
2022/01/23 10:08:49;;;;;;;25.02;14.77;;;8.00;99.90;;;;;;4947807;29;20074;-80
2022/01/23 10:11:15;;;;;;;25.35;15.25;;;7.90;99.90;;;;;;4964179;29;20102;-80
2022/01/23 10:13:44;;;;;;;24.55;15.00;;;7.80;99.90;;;;;;4984461;28;20069;-80
2022/01/23 10:16:10;;;;;;;26.05;14.68;;;7.80;99.90;;;;;;4982924;28;20034;-79
2022/01/23 10:18:36;;;;;;;24.52;14.30;;;7.80;99.90;;;;;;4983957;28;20030;-80
2022/01/23 10:21:05;;;;;;;25.85;15.50;;;8.10;99.90;;;;;;4984201;28;20018;-81
2022/01/23 10:23:31;;;;;;;27.05;15.70;;;8.20;99.90;;;;;;4983846;28;20044;-80
2022/01/23 10:25:57;;;;;;;23.92;15.20;;;8.20;99.90;;;;;;4983258;28;20376;-80
2022/01/23 10:28:28;;;;;;;24.88;14.25;;;8.20;99.90;;;;;;4981247;28;20031;-80
2022/01/23 10:30:57;;;;;;;53.78;29.08;;;8.40;99.90;;;;;;4948123;28;20035;-79
2022/01/23 10:33:35;;;;;;;26.98;15.68;;;8.30;99.90;;;;;;4964500;29;20031;-80
2022/01/23 10:36:07;;;;;;;24.73;14.87;;;8.20;99.90;;;;;;4987118;28;20031;-81
2022/01/23 10:38:43;;;;;;;20.88;13.18;;;8.30;99.90;;;;;;4968108;28;20095;-79
2022/01/23 10:42:12;;;;;;;20.52;12.75;;;8.30;99.90;;;;;;4964333;29;20054;-80
2022/01/23 10:49:50;;;;;;;21.23;12.93;;;8.30;99.90;;;;;;4963669;28;20391;-81
2022/01/23 10:52:53;;;;;;;22.75;13.60;;;8.20;99.90;;;;;;4947250;29;20035;-80
2022/01/23 10:55:38;;;;;;;23.65;14.48;;;8.20;99.90;;;;;;4960307;28;20078;-81
2022/01/23 10:58:22;;;;;;;25.23;15.00;;;8.00;99.90;;;;;;4963576;29;20318;-79
2022/01/23 11:00:48;;;;;;;22.98;13.63;;;7.80;99.90;;;;;;4963603;28;20038;-81
2022/01/23 11:03:26;;;;;;;24.15;15.43;;;7.90;99.90;;;;;;4970234;28;20066;-80
2022/01/23 11:05:55;;;;;;;25.33;15.03;;;8.00;99.90;;;;;;4984059;28;20019;-80
2022/01/23 11:08:33;;;;;;;24.00;14.98;;;8.00;99.90;;;;;;4982422;28;20038;-79
2022/01/23 11:11:11;;;;;;;24.27;15.20;;;8.00;99.90;;;;;;4998736;28;20055;-80
2022/01/23 11:19:27;;;;;;;24.15;14.73;;;8.40;99.90;;;;;;4984478;28;20205;-80
2022/01/23 11:21:54;;;;;;;26.20;15.05;;;8.60;99.90;;;;;;4970517;28;20107;-79
2022/01/23 11:24:21;;;;;;;23.00;14.43;;;8.50;99.90;;;;;;4963904;28;20117;-79
2022/01/23 11:26:47;;;;;;;23.65;14.65;;;8.50;99.90;;;;;;4963115;29;20041;-81
2022/01/23 11:29:17;;;;;;;23.15;13.57;;;8.70;99.90;;;;;;4969849;28;20015;-81
2022/01/23 11:31:44;;;;;;;21.63;13.60;;;8.80;99.90;;;;;;4982095;28;20038;-82
2022/01/23 11:34:12;;;;;;;21.13;13.10;;;8.70;99.90;;;;;;4966223;28;20030;-80
2022/01/23 11:36:39;;;;;;;23.70;14.15;;;8.80;99.90;;;;;;4977117;28;20035;-80
2022/01/23 11:39:12;;;;;;;22.08;13.52;;;8.70;99.90;;;;;;4980513;28;20054;-80
2022/01/23 11:50:46;;;;;;;20.20;12.27;;;8.40;99.90;;;;;;4962967;28;20074;-81
2022/01/23 11:53:50;;;;;;;19.88;12.95;;;8.40;99.90;;;;;;4963091;28;20102;-80
2022/01/23 11:56:47;;;;;;;20.95;12.52;;;8.50;99.90;;;;;;4978033;28;20031;-79
2022/01/23 11:59:42;;;;;;;20.55;12.27;;;8.60;99.90;;;;;;4924076;29;20315;-81
2022/01/23 12:02:48;;;;;;;20.77;12.10;;;8.60;99.90;;;;;;4907539;29;20040;-82
2022/01/23 12:09:10;;;;;;;16.63;11.02;;;8.60;99.90;;;;;;4923963;29;20039;-82
2022/01/23 12:16:53;;;;;;;16.33;10.07;;;8.50;99.90;;;;;;4906801;29;20226;-80
2022/01/23 12:19:23;;;;;;;18.58;11.07;;;8.50;99.90;;;;;;4923107;29;20031;-80
2022/01/23 12:21:53;;;;;;;17.67;10.70;;;8.30;99.90;;;;;;4936557;29;20059;-79
2022/01/23 12:24:22;;;;;;;16.88;10.52;;;8.10;99.90;;;;;;4943182;29;20067;-80
2022/01/23 12:26:48;;;;;;;;;;;8.10;99.90;;;;;;4947591;29;20167;-80
2022/01/23 12:29:25;;;;;;;17.25;9.88;;;8.00;99.90;;;;;;4942100;29;20189;-79
2022/01/23 12:32:15;;;;;;;17.48;10.75;;;8.00;99.90;;;;;;4941999;28;20342;-80
2022/01/23 12:34:53;;;;;;;15.55;10.10;;;7.70;99.90;;;;;;4943188;29;20039;-80
2022/01/23 12:37:19;;;;;;;17.52;10.45;;;7.70;99.90;;;;;;4975461;28;20118;-81
2022/01/23 12:39:46;;;;;;;17.25;10.00;;;7.70;99.90;;;;;;4963571;29;20030;-80
2022/01/23 12:42:12;;;;;;;16.60;9.98;;;7.80;99.90;;;;;;4963205;29;20035;-82
2022/01/23 12:44:39;;;;;;;16.52;9.80;;;7.70;99.90;;;;;;4971941;28;20402;-81
2022/01/23 12:47:16;;;;;;;16.20;9.85;;;7.50;99.90;;;;;;4963816;28;20290;-80
2022/01/23 12:49:53;;;;;;;15.23;9.77;;;7.60;99.90;;;;;;4946313;29;20043;-80
2022/01/23 12:52:22;;;;;;;17.33;10.00;;;7.70;99.90;;;;;;4978281;28;20053;-80
2022/01/23 12:54:50;;;;;;;16.33;10.10;;;7.60;99.90;;;;;;4978240;28;20095;-79
2022/01/23 12:57:18;;;;;;;16.27;9.88;;;7.60;99.90;;;;;;4973947;28;20187;-83
2022/01/23 12:59:51;;;;;;;;;;;7.90;99.90;;;;;;4982514;28;20022;-81
2022/01/23 13:02:19;;;;;;;15.38;8.82;;;8.00;99.90;;;;;;4979153;28;20243;-80
2022/01/23 13:04:49;;;;;;;18.50;9.97;;;8.10;99.90;;;;;;4980010;28;20273;-81
2022/01/23 13:07:27;;;;;;;17.50;10.45;;;8.30;99.90;;;;;;4981436;28;20065;-81
2022/01/23 13:10:02;;;;;;;13.65;8.50;;;8.30;99.90;;;;;;4981987;28;20073;-80
2022/01/23 13:12:48;;;;;;;13.25;7.95;;;8.30;99.90;;;;;;4965579;28;20033;-81
2022/01/23 13:15:28;;;;;;;12.25;7.43;;;8.30;99.90;;;;;;4981986;28;20033;-80
2022/01/23 13:32:06;;;;;;;6.32;2.20;;;8.30;99.90;;;;;;4981517;28;20110;-80
2022/01/23 13:34:48;;;;;;;4.65;1.80;;;8.20;99.90;;;;;;4966890;28;20031;-80
2022/01/23 13:37:20;;;;;;;3.00;1.70;;;8.30;99.90;;;;;;4966526;28;20050;-79
2022/01/23 13:39:54;;;;;;;3.88;1.77;;;8.20;99.90;;;;;;4967298;29;20322;-81
2022/01/23 13:48:28;;;;;;;3.05;1.50;;;8.50;99.90;;;;;;4984780;28;20042;-81
2022/01/23 13:51:30;;;;;;;2.92;1.52;;;8.40;99.90;;;;;;4962554;29;20204;-81
2022/01/23 13:59:40;;;;;;;4.22;2.00;;;8.30;99.90;;;;;;4929566;29;20024;-82
2022/01/23 14:02:19;;;;;;;4.43;1.88;;;8.10;99.90;;;;;;4945489;29;20039;-80
2022/01/23 14:05:02;;;;;;;4.90;2.15;;;8.10;99.90;;;;;;4930576;29;20258;-81
2022/01/23 14:14:50;;;;;;;4.70;2.03;;;8.00;99.90;;;;;;4909901;29;20025;-81
2022/01/23 14:17:17;;;;;;;3.92;1.80;;;7.90;99.90;;;;;;4926141;29;20040;-82
2022/01/23 14:20:11;;;;;;;3.65;1.98;;;8.00;99.90;;;;;;4927494;29;20052;-83
2022/01/23 14:22:40;;;;;;;4.40;2.08;;;8.20;99.90;;;;;;4925043;29;20031;-81
2022/01/23 14:25:21;;;;;;;3.72;2.10;;;8.20;99.90;;;;;;4932179;29;20028;-81
2022/01/23 14:28:00;;;;;;;3.90;2.00;;;8.10;99.90;;;;;;4930687;29;20086;-82
2022/01/23 14:30:29;;;;;;;3.63;2.13;;;8.00;99.90;;;;;;4909137;29;20036;-81
2022/01/23 14:33:03;;;;;;;5.03;2.35;;;8.10;99.90;;;;;;4891268;29;20040;-79
2022/01/23 14:35:31;;;;;;;3.88;2.13;;;8.20;99.90;;;;;;4926422;29;20338;-80
2022/01/23 14:38:15;;;;;;;3.83;2.20;;;8.20;99.90;;;;;;4911258;29;20032;-79
2022/01/23 14:41:02;;;;;;;4.22;2.03;;;8.10;99.90;;;;;;4879652;29;20032;-80
2022/01/23 14:43:40;;;;;;;4.75;2.00;;;8.00;99.90;;;;;;4924931;29;20084;-80
2022/01/23 14:46:08;;;;;;;5.35;2.22;;;7.90;99.90;;;;;;4926731;29;20084;-80
2022/01/23 14:48:43;;;;;;;5.53;2.08;;;7.50;99.90;;;;;;4919782;29;20107;-82
2022/01/23 14:51:12;;;;;;;3.78;1.90;;;7.30;99.90;;;;;;4945301;29;20023;-81
2022/01/23 14:53:39;;;;;;;3.88;2.05;;;7.20;99.90;;;;;;4941344;29;20028;-82
2022/01/23 14:56:07;;;;;;;5.03;2.33;;;7.00;99.90;;;;;;4946032;29;20047;-83
2022/01/23 14:58:34;;;;;;;4.80;1.93;;;7.00;99.90;;;;;;4946009;29;20461;-82
2022/01/23 15:01:02;;;;;;;6.18;2.70;;;7.00;99.90;;;;;;4960042;28;20035;-81
2022/01/23 15:03:30;;;;;;;5.10;2.40;;;7.00;99.90;;;;;;4938940;29;20040;-81
2022/01/23 15:05:57;;;;;;;6.15;2.60;;;7.00;99.90;;;;;;4929278;29;20312;-79
2022/01/23 15:08:25;;;;;;;5.43;2.78;;;7.00;99.90;;;;;;4918241;29;20034;-82
2022/01/23 15:10:53;;;;;;;6.53;2.90;;;7.00;99.90;;;;;;4932339;29;20046;-83
2022/01/23 15:13:20;;;;;;;;;;;7.10;99.90;;;;;;4948270;29;20043;-80
2022/01/23 15:15:47;;;;;;;5.10;2.42;;;7.00;99.90;;;;;;4963906;28;19913;-80
2022/01/23 15:18:16;;;;;;;6.47;2.67;;;7.00;99.90;;;;;;4946599;29;20382;-82
2022/01/23 15:20:44;;;;;;;5.93;2.63;;;6.90;99.90;;;;;;4948222;29;20346;-82
2022/01/23 15:23:41;;;;;;;4.03;2.25;;;6.90;99.90;;;;;;4948080;29;20325;-81
2022/01/23 15:26:07;;;;;;;4.95;2.75;;;6.80;99.90;;;;;;4947905;29;20035;-80
2022/01/23 15:28:36;;;;;;;4.47;2.40;;;6.70;99.90;;;;;;4946886;29;20174;-82
2022/01/23 15:31:02;;;;;;;5.05;2.88;;;6.60;99.90;;;;;;4931824;29;20063;-82
2022/01/23 15:33:28;;;;;;;5.55;2.80;;;6.40;99.90;;;;;;4947386;29;20031;-83
2022/01/23 15:35:57;;;;;;;5.35;2.78;;;6.50;99.90;;;;;;4948429;29;20094;-81
2022/01/23 15:41:38;;;;;;;4.97;2.78;;;6.40;99.90;;;;;;4973018;28;19934;-81
2022/01/23 15:44:05;;;;;;;5.38;3.15;;;6.30;99.90;;;;;;4977711;28;20178;-82
2022/01/23 15:46:31;;;;;;;6.18;3.10;;;6.30;99.90;;;;;;4960475;29;20047;-81
2022/01/23 15:48:57;;;;;;;6.78;3.00;;;6.30;99.90;;;;;;4977600;28;20106;-81
2022/01/23 15:51:23;;;;;;;5.72;3.40;;;6.30;99.90;;;;;;4977810;29;20070;-82
2022/01/23 15:53:49;;;;;;;6.13;3.28;;;6.40;99.90;;;;;;4942211;28;20042;-81
2022/01/23 15:56:14;;;;;;;6.50;3.42;;;6.40;99.90;;;;;;4948090;29;20051;-81
2022/01/23 15:58:40;;;;;;;6.30;3.22;;;6.40;99.90;;;;;;4949825;29;20027;-82
2022/01/23 16:01:06;;;;;;;5.47;3.08;;;6.40;99.90;;;;;;4944094;29;20032;-82
2022/01/23 16:03:33;;;;;;;5.95;3.25;;;6.40;99.90;;;;;;4942923;29;20035;-81
2022/01/23 16:05:59;;;;;;;7.45;3.10;;;6.30;99.90;;;;;;4944873;29;20031;-81
2022/01/23 16:08:26;;;;;;;7.93;3.35;;;6.40;99.90;;;;;;4928008;29;20031;-81
2022/01/23 16:19:29;;;;;;;4.40;2.58;;;6.30;99.90;;;;;;4960190;28;20478;-81
2022/01/23 16:22:08;;;;;;;4.82;2.50;;;6.30;99.90;;;;;;4879572;29;21418;-82
2022/01/23 16:24:34;;;;;;;5.85;2.65;;;6.10;99.90;;;;;;4921811;29;20032;-81
2022/01/23 16:27:00;;;;;;;4.40;2.38;;;6.10;99.90;;;;;;4935524;29;20019;-79
2022/01/23 16:29:28;;;;;;;4.55;2.70;;;6.00;99.90;;;;;;4940183;29;20028;-79
2022/01/23 16:31:56;;;;;;;3.43;2.27;;;6.00;99.90;;;;;;4939940;29;20238;-80
2022/01/23 16:34:22;;;;;;;4.57;2.22;;;5.90;99.90;;;;;;4927092;29;20027;-79
2022/01/23 16:36:48;;;;;;;6.20;2.60;;;5.90;99.90;;;;;;4945215;29;20028;-80
2022/01/23 16:39:24;;;;;;;4.03;2.17;;;5.90;99.90;;;;;;4945213;29;20027;-80
2022/01/23 16:42:12;;;;;;;6.85;2.28;;;5.90;99.90;;;;;;4927397;29;20031;-81
2022/01/23 16:44:38;;;;;;;4.20;2.13;;;5.90;99.90;;;;;;4940002;29;20685;-82
2022/01/23 16:47:09;;;;;;;5.35;2.30;;;5.90;99.90;;;;;;4956781;29;20035;-81
2022/01/23 16:49:37;;;;;;;5.13;2.33;;;5.90;99.90;;;;;;4943471;28;20047;-80
2022/01/23 16:52:03;;;;;;;;;;;5.90;99.90;;;;;;4954175;28;20121;-82
2022/01/23 16:54:30;;;;;;;5.70;2.50;;;5.90;99.90;;;;;;4955857;29;19923;-81
2022/01/23 16:56:57;;;;;;;5.32;2.30;;;5.90;99.90;;;;;;4957939;29;20333;-80
2022/01/23 16:59:33;;;;;;;3.55;1.92;;;5.90;99.90;;;;;;4955790;29;20027;-80
2022/01/23 17:01:59;;;;;;;5.88;2.50;;;5.90;99.90;;;;;;4957104;28;20078;-81
2022/01/23 17:04:32;;;;;;;4.30;2.28;;;5.90;99.90;;;;;;4960025;29;20880;-83
2022/01/23 17:06:58;;;;;;;5.13;2.58;;;5.90;99.90;;;;;;4962265;29;20399;-81
2022/01/23 17:09:32;;;;;;;4.82;2.30;;;5.80;99.90;;;;;;4961555;29;20073;-81
2022/01/23 17:11:59;;;;;;;5.15;2.50;;;5.80;99.90;;;;;;4961587;29;20023;-80
2022/01/23 17:14:31;;;;;;;3.72;2.05;;;5.80;99.90;;;;;;4961449;29;20023;-82
2022/01/23 17:16:57;;;;;;;5.50;2.30;;;5.90;99.90;;;;;;4961133;28;20046;-80
2022/01/23 17:19:26;;;;;;;4.22;2.55;;;5.80;99.90;;;;;;4959686;29;20242;-81
2022/01/23 17:21:53;;;;;;;6.90;3.35;;;5.80;99.90;;;;;;4961047;29;20058;-82
2022/01/23 17:24:19;;;;;;;4.85;2.42;;;5.70;99.90;;;;;;4943039;29;20103;-82
2022/01/23 17:26:47;;;;;;;5.07;2.35;;;5.70;99.90;;;;;;4946354;29;20032;-81
2022/01/23 17:29:13;;;;;;;4.90;2.70;;;5.70;99.90;;;;;;4958603;29;20267;-81